Time;durP1;ratioP1;P1;durP2;ratioP2;P2;SDS_P1;SDS_P2;PMS_P1;PMS_P2;Temp;Humidity;BMP_temperature;BMP_pressure;BME280_temperature;BME280_humidity;BME280_pressure;Samples;Min_cycle;Max_cycle;Signal;HPM_P1;HPM_P2
2021/05/09 00:01:28;;;;;;;3.03;1.70;;;;;;;8.51;68.68;93006.34;5013486;28;20033;-77
2021/05/09 00:03:54;;;;;;;5.43;2.10;;;;;;;8.51;68.27;93006.34;4994991;28;20080;-77
2021/05/09 00:06:20;;;;;;;4.10;2.30;;;;;;;8.51;68.19;93006.34;4993895;28;20104;-77
2021/05/09 00:08:46;;;;;;;3.50;1.83;;;;;;;8.52;68.51;93001.91;5000888;28;20022;-77
2021/05/09 00:11:12;;;;;;;4.43;2.00;;;;;;;8.52;68.21;93009.72;4994797;28;20041;-77
2021/05/09 00:13:38;;;;;;;4.22;1.85;;;;;;;8.50;68.51;93004.75;4993941;28;20096;-77
2021/05/09 00:16:04;;;;;;;4.10;1.77;;;;;;;8.49;68.74;93003.22;4994420;28;20038;-77
2021/05/09 00:18:30;;;;;;;4.13;1.75;;;;;;;8.47;68.66;93004.53;4992442;28;20042;-77
2021/05/09 00:20:56;;;;;;;3.72;1.77;;;;;;;8.44;68.63;92995.34;5011402;28;20068;-77
2021/05/09 00:23:22;;;;;;;5.13;1.65;;;;;;;8.43;68.41;92998.25;4994446;28;20331;-77
2021/05/09 00:25:48;;;;;;;3.33;1.83;;;;;;;8.40;69.13;92998.72;4989370;28;20042;-77
2021/05/09 00:28:14;;;;;;;4.40;1.92;;;;;;;8.37;69.19;92996.63;4984984;28;20515;-77
2021/05/09 00:30:39;;;;;;;3.38;1.65;;;;;;;8.36;68.72;92993.25;4973017;28;20053;-77
2021/05/09 00:33:05;;;;;;;5.20;1.88;;;;;;;8.34;69.04;92984.91;4972899;28;20038;-77
2021/05/09 00:35:31;;;;;;;7.30;2.10;;;;;;;8.34;69.41;92990.13;4973038;28;20569;-77
2021/05/09 00:37:56;;;;;;;9.27;1.77;;;;;;;8.34;69.66;92990.13;4970912;28;20041;-77
2021/05/09 00:40:22;;;;;;;3.53;1.80;;;;;;;8.30;69.36;92989.06;4937224;28;20401;-76
2021/05/09 00:42:48;;;;;;;4.80;1.75;;;;;;;8.28;69.24;92984.09;4937675;28;20508;-77
2021/05/09 00:45:14;;;;;;;4.30;1.75;;;;;;;8.24;69.25;92980.47;4971307;28;20098;-76
2021/05/09 00:47:40;;;;;;;4.53;2.00;;;;;;;8.27;68.81;92984.38;4938118;28;20027;-77
2021/05/09 00:50:07;;;;;;;5.82;1.83;;;;;;;8.26;68.89;92977.59;4975067;28;20381;-77
2021/05/09 00:52:38;;;;;;;3.45;1.80;;;;;;;8.25;69.44;92978.63;4956511;28;20034;-77
2021/05/09 00:55:07;;;;;;;3.47;1.63;;;;;;;8.23;69.46;92976.28;4940987;28;20055;-76
2021/05/09 00:57:35;;;;;;;5.22;1.67;;;;;;;8.22;69.49;92971.31;4957616;28;20023;-77
2021/05/09 01:00:04;;;;;;;4.97;2.05;;;;;;;8.17;69.74;92974.69;4957449;28;20099;-77
2021/05/09 01:02:31;;;;;;;3.75;1.67;;;;;;;8.16;69.82;92969.75;4957327;28;20027;-77
2021/05/09 01:04:59;;;;;;;3.75;1.88;;;;;;;8.14;70.03;92967.41;4956517;28;20053;-77
2021/05/09 01:07:25;;;;;;;3.10;1.70;;;;;;;8.10;69.91;92961.91;4974331;28;20054;-77
2021/05/09 01:09:51;;;;;;;3.38;1.60;;;;;;;8.07;70.10;92969.47;4956864;28;20524;-77
2021/05/09 01:12:17;;;;;;;5.28;1.90;;;;;;;8.05;69.95;92972.34;4956569;28;20117;-77
2021/05/09 01:14:43;;;;;;;4.78;1.75;;;;;;;8.02;70.17;92962.44;4973707;28;20035;-77
2021/05/09 01:17:12;;;;;;;6.20;1.75;;;;;;;8.01;70.19;92968.66;4940701;28;20027;-76
2021/05/09 01:19:39;;;;;;;3.75;1.70;;;;;;;7.98;70.49;92963.22;4973093;28;20118;-77
2021/05/09 01:22:10;;;;;;;3.25;1.75;;;;;;;7.97;70.55;92959.81;4940974;28;20127;-77
2021/05/09 01:24:37;;;;;;;2.35;1.50;;;;;;;7.97;70.37;92962.44;4973795;28;20042;-76
2021/05/09 01:27:04;;;;;;;3.50;1.80;;;;;;;7.94;70.47;92960.31;4955973;28;20449;-77
2021/05/09 01:29:31;;;;;;;5.53;1.83;;;;;;;7.97;70.71;92959.81;4953562;28;20054;-77
2021/05/09 01:31:58;;;;;;;3.70;1.88;;;;;;;7.92;70.81;92958.00;4956702;28;20058;-77
2021/05/09 01:34:26;;;;;;;3.05;1.70;;;;;;;7.88;70.65;92956.13;4955577;28;20117;-76
2021/05/09 01:36:52;;;;;;;4.13;1.80;;;;;;;7.85;70.83;92961.88;4973798;28;20042;-77
2021/05/09 01:39:17;;;;;;;4.65;2.10;;;;;;;7.81;70.49;92963.41;4973842;28;20030;-77
2021/05/09 01:41:43;;;;;;;6.32;1.70;;;;;;;7.77;70.75;92962.34;4961095;28;20043;-77
2021/05/09 01:44:09;;;;;;;4.13;1.90;;;;;;;7.75;70.81;92956.66;4973014;28;20023;-77
2021/05/09 01:46:35;;;;;;;5.15;1.80;;;;;;;7.74;70.55;92955.06;4956118;28;20096;-76
2021/05/09 01:49:01;;;;;;;2.53;1.60;;;;;;;7.72;70.96;92957.91;4973511;28;20039;-77
2021/05/09 01:51:27;;;;;;;4.38;1.80;;;;;;;7.69;71.04;92953.22;4952053;28;20046;-77
2021/05/09 01:53:53;;;;;;;4.28;1.67;;;;;;;7.67;71.06;92953.47;4975577;28;20097;-76
2021/05/09 01:56:20;;;;;;;5.97;1.70;;;;;;;7.66;71.99;92948.53;4974886;28;20070;-76
2021/05/09 01:58:46;;;;;;;3.95;1.88;;;;;;;7.65;71.74;92950.34;4975320;28;20083;-77
2021/05/09 02:01:15;;;;;;;2.85;1.58;;;;;;;7.61;72.54;92940.69;4973820;28;20133;-77
2021/05/09 02:03:53;;;;;;;2.97;1.70;;;;;;;7.59;72.20;92948.78;4962610;28;20034;-77
2021/05/09 02:06:19;;;;;;;4.88;1.75;;;;;;;7.55;72.07;92950.31;4959081;28;20051;-76
2021/05/09 02:08:45;;;;;;;4.35;1.80;;;;;;;7.52;71.72;92948.25;4974294;28;20536;-77
2021/05/09 02:11:22;;;;;;;3.60;1.55;;;;;;;7.51;71.77;92944.03;4971580;28;20117;-77
2021/05/09 02:13:50;;;;;;;3.97;1.70;;;;;;;7.47;72.28;92951.56;4955951;28;20049;-76
2021/05/09 02:16:25;;;;;;;4.15;1.80;;;;;;;7.45;72.15;92947.66;4972853;28;20042;-77
2021/05/09 02:18:51;;;;;;;2.40;1.55;;;;;;;7.42;72.47;92948.97;4972996;28;20027;-77
2021/05/09 02:21:18;;;;;;;4.43;1.88;;;;;;;7.39;72.68;92943.50;4969518;28;20030;-76
2021/05/09 02:23:45;;;;;;;3.67;1.77;;;;;;;7.39;72.47;92938.28;4957946;28;20157;-77
2021/05/09 02:26:10;;;;;;;3.47;1.70;;;;;;;7.38;72.33;92936.69;4974878;28;20738;-76
2021/05/09 02:28:36;;;;;;;5.82;1.88;;;;;;;7.36;72.48;92929.13;4974526;28;20043;-77
2021/05/09 02:31:02;;;;;;;4.45;1.80;;;;;;;7.36;72.55;92936.16;4966289;28;20034;-77
2021/05/09 02:33:29;;;;;;;3.50;1.80;;;;;;;7.33;72.93;92934.09;4973394;28;20097;-76
2021/05/09 02:35:55;;;;;;;3.60;1.80;;;;;;;7.36;73.22;92933.56;4954919;28;20523;-77
2021/05/09 02:38:20;;;;;;;5.85;1.92;;;;;;;7.36;72.80;92933.56;4940438;28;20097;-77
2021/05/09 02:40:47;;;;;;;3.65;1.67;;;;;;;7.29;72.70;92928.59;4964992;28;20038;-77
2021/05/09 02:43:17;;;;;;;3.60;1.80;;;;;;;7.26;73.08;92929.88;4958383;28;20048;-77
2021/05/09 02:45:44;;;;;;;4.28;1.80;;;;;;;7.23;73.28;92933.00;4974618;28;20034;-77
2021/05/09 02:48:11;;;;;;;4.25;2.10;;;;;;;7.23;73.10;92922.59;4974988;28;20453;-76
2021/05/09 02:50:38;;;;;;;4.00;1.92;;;;;;;7.22;73.37;92928.81;4948730;28;20070;-77
2021/05/09 02:53:04;;;;;;;4.93;1.95;;;;;;;7.21;73.25;92922.06;4968095;28;20065;-77
2021/05/09 02:55:30;;;;;;;3.58;1.83;;;;;;;7.21;73.40;92923.88;4974718;28;20126;-77
2021/05/09 02:57:57;;;;;;;3.35;1.80;;;;;;;7.21;73.26;92921.28;4974200;28;20020;-77
2021/05/09 03:00:23;;;;;;;4.10;1.88;;;;;;;7.21;73.36;92923.88;4970060;28;20087;-76
2021/05/09 03:02:50;;;;;;;6.68;1.90;;;;;;;7.21;72.96;92922.06;4939591;28;20151;-77
2021/05/09 03:05:20;;;;;;;5.72;2.13;;;;;;;7.21;73.13;92921.28;4954382;28;20035;-77
2021/05/09 03:07:46;;;;;;;4.00;1.98;;;;;;;7.20;72.88;92917.88;4954822;28;20057;-77
2021/05/09 03:10:13;;;;;;;4.75;2.10;;;;;;;7.21;73.88;92921.28;4961437;28;20034;-77
2021/05/09 03:12:39;;;;;;;3.60;1.75;;;;;;;7.21;73.69;92927.28;4973962;28;20045;-77
2021/05/09 03:15:05;;;;;;;3.42;1.80;;;;;;;7.22;72.58;92930.66;4974049;28;20081;-77
2021/05/09 03:17:32;;;;;;;3.63;1.75;;;;;;;7.26;72.94;92924.69;4974355;28;20039;-77
2021/05/09 03:19:57;;;;;;;3.97;1.77;;;;;;;7.23;72.34;92925.19;4957264;28;20032;-77
2021/05/09 03:22:23;;;;;;;4.50;1.70;;;;;;;7.23;72.67;92920.00;4957714;28;20034;-77
2021/05/09 03:24:48;;;;;;;2.80;1.40;;;;;;;7.20;72.83;92923.09;4953237;28;20042;-77
2021/05/09 03:27:14;;;;;;;3.90;1.50;;;;;;;7.19;72.40;92924.13;4954408;28;20043;-77
2021/05/09 03:29:40;;;;;;;1.83;1.23;;;;;;;7.16;72.46;92924.66;4986460;28;20097;-77
2021/05/09 03:32:06;;;;;;;2.60;1.40;;;;;;;7.17;72.41;92925.44;4973743;28;20085;-77
2021/05/09 03:34:31;;;;;;;2.72;1.40;;;;;;;7.16;72.76;92929.84;4988719;28;20042;-77
2021/05/09 03:36:57;;;;;;;2.72;1.38;;;;;;;7.13;72.48;92935.56;4991340;28;20426;-76
2021/05/09 03:39:22;;;;;;;3.75;1.40;;;;;;;7.13;72.20;92930.34;4979582;28;20532;-77
2021/05/09 03:41:48;;;;;;;3.22;1.40;;;;;;;7.14;71.79;92934.53;4938590;28;20477;-77
2021/05/09 03:44:14;;;;;;;2.03;1.25;;;;;;;7.12;71.83;92934.00;4954099;28;20106;-77
2021/05/09 03:46:39;;;;;;;2.40;1.40;;;;;;;7.12;71.38;92938.44;4954655;28;20125;-77
2021/05/09 03:49:05;;;;;;;4.22;1.60;;;;;;;7.12;71.26;92941.81;4954428;28;20038;-77
2021/05/09 03:51:31;;;;;;;4.55;1.40;;;;;;;7.11;71.70;92937.63;4972147;28;20047;-76
2021/05/09 03:53:56;;;;;;;5.05;1.38;;;;;;;7.09;72.34;92939.69;4939704;28;20090;-76
2021/05/09 03:56:22;;;;;;;3.22;1.45;;;;;;;7.08;71.97;92943.34;4972839;28;20050;-76
2021/05/09 03:58:48;;;;;;;3.30;1.55;;;;;;;7.07;71.92;92941.78;4966096;28;20059;-76
2021/05/09 04:01:13;;;;;;;3.90;1.48;;;;;;;7.06;71.52;92945.41;4971730;28;20115;-76
2021/05/09 04:03:39;;;;;;;4.32;1.50;;;;;;;7.07;71.88;92942.56;4969808;28;20066;-75
2021/05/09 04:06:05;;;;;;;2.75;1.40;;;;;;;7.09;71.73;92944.91;4971984;28;20034;-78
2021/05/09 04:08:30;;;;;;;5.75;1.35;;;;;;;7.09;71.88;92937.91;4954652;28;20081;-78
2021/05/09 04:10:58;;;;;;;2.60;1.50;;;;;;;7.13;72.67;92945.97;4967502;28;20054;-77
2021/05/09 04:13:24;;;;;;;3.00;1.60;;;;;;;7.12;72.38;92941.81;4971016;28;20062;-78
2021/05/09 04:15:50;;;;;;;3.00;1.30;;;;;;;7.12;72.23;92941.81;4954318;28;20023;-77
2021/05/09 04:18:16;;;;;;;3.22;1.50;;;;;;;7.13;71.91;92939.97;4959575;28;20047;-77
2021/05/09 04:20:42;;;;;;;8.13;1.63;;;;;;;7.13;71.81;92939.97;4969792;28;20485;-77
2021/05/09 04:23:16;;;;;;;3.20;1.48;;;;;;;7.13;72.12;92945.19;4972860;28;20043;-77
2021/05/09 04:25:48;;;;;;;4.22;1.63;;;;;;;7.14;72.26;92950.16;4962081;28;20174;-77
2021/05/09 04:28:13;;;;;;;2.63;1.50;;;;;;;7.16;72.59;92945.47;4974336;28;20042;-77
2021/05/09 04:30:39;;;;;;;3.88;1.65;;;;;;;7.20;72.38;92943.91;4976843;28;20046;-77
2021/05/09 04:33:06;;;;;;;2.42;1.50;;;;;;;7.23;72.27;92946.03;4961104;28;20137;-77
2021/05/09 04:35:34;;;;;;;2.20;1.40;;;;;;;7.26;71.95;92950.72;4975271;28;20062;-77
2021/05/09 04:38:00;;;;;;;5.32;1.70;;;;;;;7.32;72.03;92954.16;4988044;28;20107;-77
2021/05/09 04:40:27;;;;;;;3.63;1.70;;;;;;;7.36;71.94;92952.56;4970399;28;20042;-77
2021/05/09 04:42:53;;;;;;;2.53;1.70;;;;;;;7.43;71.75;92954.94;4993248;28;20045;-76
2021/05/09 04:45:19;;;;;;;4.47;1.95;;;;;;;7.48;71.50;92949.78;4976934;28;20031;-77
2021/05/09 04:47:45;;;;;;;3.63;1.60;;;;;;;7.55;72.05;92952.94;4988792;28;20034;-77
2021/05/09 04:50:12;;;;;;;4.97;1.90;;;;;;;7.62;71.68;92948.25;4976993;28;20029;-77
2021/05/09 04:52:38;;;;;;;3.92;1.88;;;;;;;7.69;71.52;92953.22;4987154;28;20046;-76
2021/05/09 04:55:06;;;;;;;4.95;1.60;;;;;;;7.74;70.99;92955.84;4976451;28;20080;-76
2021/05/09 04:57:33;;;;;;;6.70;1.75;;;;;;;7.83;71.03;92958.72;4976489;28;20459;-76
2021/05/09 04:59:59;;;;;;;5.63;1.63;;;;;;;7.89;70.95;92955.88;4976360;28;20113;-77
2021/05/09 05:02:25;;;;;;;4.35;1.70;;;;;;;7.96;70.77;92954.84;4987811;28;20054;-76
2021/05/09 05:04:51;;;;;;;3.97;1.70;;;;;;;8.05;70.35;92955.91;4974592;28;20047;-76
2021/05/09 05:07:16;;;;;;;3.67;1.70;;;;;;;8.17;70.12;92959.03;4979235;28;20146;-76
2021/05/09 05:09:42;;;;;;;3.15;1.60;;;;;;;8.31;69.99;92964.56;4973635;28;20050;-77
2021/05/09 05:12:09;;;;;;;4.20;1.55;;;;;;;8.47;69.94;92963.56;4993560;28;20037;-76
2021/05/09 05:14:35;;;;;;;4.32;1.50;;;;;;;8.64;69.34;92962.50;4987592;28;20129;-76
2021/05/09 05:17:01;;;;;;;2.88;1.50;;;;;;;8.79;68.92;92969.53;4981788;28;20029;-78
2021/05/09 05:19:27;;;;;;;4.00;1.48;;;;;;;8.91;68.60;92959.59;4969358;28;20061;-78
2021/05/09 05:21:53;;;;;;;2.90;1.55;;;;;;;9.07;68.53;92965.56;4952397;28;20030;-78
2021/05/09 05:24:19;;;;;;;4.28;1.48;;;;;;;9.20;67.99;92972.84;4992194;28;20038;-78
2021/05/09 05:26:44;;;;;;;2.72;1.48;;;;;;;9.32;67.80;92970.75;4977916;28;20492;-77
2021/05/09 05:29:10;;;;;;;3.35;1.33;;;;;;;9.43;67.77;92966.25;4976663;28;20163;-78
2021/05/09 05:31:35;;;;;;;4.22;1.80;;;;;;;9.54;67.03;92972.22;4990797;28;20069;-78
2021/05/09 05:34:02;;;;;;;2.85;1.50;;;;;;;9.67;66.59;92978.72;4966418;28;20059;-78
2021/05/09 05:36:31;;;;;;;4.22;1.50;;;;;;;9.80;66.43;92967.69;4986062;28;20121;-78
2021/05/09 05:38:59;;;;;;;4.70;1.70;;;;;;;9.97;66.28;92973.38;4988057;28;20057;-79
2021/05/09 05:41:26;;;;;;;4.40;1.60;;;;;;;10.14;65.78;92977.44;4965926;28;20129;-77
2021/05/09 05:43:52;;;;;;;3.20;1.63;;;;;;;10.30;65.12;92983.41;4958151;28;20129;-79
2021/05/09 05:46:18;;;;;;;2.17;1.30;;;;;;;10.45;65.59;92972.84;4959847;28;20101;-79
2021/05/09 05:48:43;;;;;;;3.17;1.40;;;;;;;10.66;65.01;92977.91;4961767;28;20031;-79
2021/05/09 05:51:09;;;;;;;3.35;1.52;;;;;;;10.84;65.14;92982.47;4992300;28;20084;-79
2021/05/09 05:53:35;;;;;;;3.22;1.70;;;;;;;11.03;64.65;92983.34;4995580;28;20034;-78
2021/05/09 05:56:00;;;;;;;3.72;1.63;;;;;;;11.26;64.40;92975.81;4975592;28;20146;-79
2021/05/09 05:58:26;;;;;;;3.60;1.73;;;;;;;11.79;62.66;92978.34;4974228;28;20031;-77
2021/05/09 06:00:52;;;;;;;6.15;1.75;;;;;;;14.01;55.38;92976.41;4997433;28;20058;-79
2021/05/09 06:03:18;;;;;;;3.35;1.40;;;;;;;16.63;47.37;92976.63;4975484;28;20464;-79
2021/05/09 06:05:45;;;;;;;2.63;1.45;;;;;;;18.58;42.69;92975.38;4998024;28;20064;-79
2021/05/09 06:08:11;;;;;;;2.22;1.33;;;;;;;19.89;39.72;92973.00;4959349;28;20113;-79
2021/05/09 06:10:37;;;;;;;2.58;1.40;;;;;;;20.55;38.40;92971.16;4995632;28;20062;-79
2021/05/09 06:13:03;;;;;;;4.10;1.42;;;;;;;20.48;38.15;92979.69;4992880;28;20034;-79
2021/05/09 06:15:31;;;;;;;3.38;1.40;;;;;;;21.56;35.75;92970.13;4993580;28;20038;-79
2021/05/09 06:17:57;;;;;;;4.13;1.40;;;;;;;22.53;33.96;92977.69;4988959;28;20105;-79
2021/05/09 06:20:23;;;;;;;2.70;1.60;;;;;;;23.56;30.35;92972.84;4967898;28;20398;-79
2021/05/09 06:22:49;;;;;;;3.83;1.50;;;;;;;24.50;29.27;92975.13;4986030;28;20129;-77
2021/05/09 06:25:14;;;;;;;2.58;1.45;;;;;;;25.41;28.66;92967.06;4988496;28;20062;-80
2021/05/09 06:27:43;;;;;;;6.03;1.55;;;;;;;25.92;27.93;92964.50;4986665;28;20027;-79
2021/05/09 06:30:09;;;;;;;1.98;1.40;;;;;;;25.78;28.46;92967.00;4985829;28;20109;-78
2021/05/09 06:32:35;;;;;;;2.70;1.40;;;;;;;25.79;27.13;92965.88;4982670;28;20211;-81
2021/05/09 06:35:00;;;;;;;2.50;1.40;;;;;;;21.81;34.22;92965.38;4981882;28;20042;-79
2021/05/09 06:37:27;;;;;;;2.53;1.40;;;;;;;19.33;40.28;92975.34;4962390;28;20045;-78
2021/05/09 06:39:53;;;;;;;4.57;1.63;;;;;;;18.05;43.05;92975.69;4970392;28;20053;-78
2021/05/09 06:42:19;;;;;;;2.20;1.17;;;;;;;19.74;39.16;92971.75;4987200;28;20061;-79
2021/05/09 06:44:52;;;;;;;3.90;1.50;;;;;;;19.76;38.52;92960.81;4988357;28;20114;-78
2021/05/09 06:47:18;;;;;;;2.90;1.42;;;;;;;19.00;38.71;92970.03;4981552;28;20042;-77
2021/05/09 06:49:44;;;;;;;2.90;1.30;;;;;;;17.38;42.11;92963.97;4964388;28;20492;-77
2021/05/09 06:52:09;;;;;;;3.83;1.60;;;;;;;16.55;44.83;92974.75;4985649;28;20130;-77
2021/05/09 06:54:35;;;;;;;2.35;1.30;;;;;;;14.79;49.04;92971.78;4964731;28;20042;-78
2021/05/09 06:57:03;;;;;;;2.72;1.40;;;;;;;14.21;53.02;92978.59;4967878;28;20026;-78
2021/05/09 06:59:30;;;;;;;4.00;1.50;;;;;;;14.31;48.42;92978.38;4963445;28;20049;-79
2021/05/09 07:01:56;;;;;;;3.90;1.50;;;;;;;13.52;53.96;92974.16;4986856;28;20038;-79
2021/05/09 07:04:21;;;;;;;3.28;1.40;;;;;;;13.50;51.15;92981.56;4987008;28;20548;-78
2021/05/09 07:06:47;;;;;;;4.07;1.67;;;;;;;13.38;51.39;92981.28;4984596;28;20039;-77
2021/05/09 07:09:13;;;;;;;4.18;2.28;;;;;;;13.77;50.06;92977.38;4963515;28;20045;-77
2021/05/09 07:11:39;;;;;;;3.55;1.92;;;;;;;13.89;50.85;92982.16;4969825;28;20089;-77
2021/05/09 07:14:05;;;;;;;5.05;2.35;;;;;;;13.49;50.42;92979.25;4993639;28;20094;-76
2021/05/09 07:16:32;;;;;;;4.93;2.30;;;;;;;13.69;52.08;92978.88;4969809;28;20125;-77
2021/05/09 07:18:59;;;;;;;4.47;2.65;;;;;;;13.22;54.05;92980.75;4989908;28;20018;-79
2021/05/09 07:21:28;;;;;;;6.43;2.95;;;;;;;13.87;52.39;92982.47;4968448;28;20489;-80
2021/05/09 07:23:53;;;;;;;9.02;3.00;;;;;;;13.81;52.11;92983.63;4993395;28;20034;-78
2021/05/09 07:26:20;;;;;;;6.82;3.63;;;;;;;13.73;53.47;92990.38;4984859;28;20081;-77
2021/05/09 07:28:46;;;;;;;4.78;2.33;;;;;;;13.40;54.80;92966.00;4990352;28;20383;-78
2021/05/09 07:31:13;;;;;;;5.80;2.80;;;;;;;13.57;55.25;92986.44;4991590;28;20045;-80
2021/05/09 07:33:41;;;;;;;10.40;3.08;;;;;;;13.87;55.90;92984.28;4969918;28;20088;-76
2021/05/09 07:36:07;;;;;;;4.00;1.90;;;;;;;14.17;55.58;92982.91;4982138;28;20050;-81
2021/05/09 07:38:33;;;;;;;7.65;2.72;;;;;;;13.02;57.57;92987.13;4989807;28;20436;-78
2021/05/09 07:40:59;;;;;;;5.25;2.10;;;;;;;13.56;58.31;92981.50;4980821;28;20038;-79
2021/05/09 07:43:25;;;;;;;5.97;2.33;;;;;;;13.73;56.20;92981.66;4976631;28;20066;-80
2021/05/09 07:45:50;;;;;;;5.45;2.60;;;;;;;13.31;56.06;92994.81;4969825;28;20105;-80
2021/05/09 07:48:16;;;;;;;7.13;3.00;;;;;;;13.19;57.37;92991.06;4991329;28;20054;-80
2021/05/09 07:50:42;;;;;;;6.35;2.28;;;;;;;13.47;57.26;92986.66;4986678;28;20054;-80
2021/05/09 07:53:09;;;;;;;4.25;2.30;;;;;;;13.39;57.31;92993.34;4993382;28;20042;-81
2021/05/09 07:55:35;;;;;;;5.75;2.92;;;;;;;13.72;56.87;92986.16;4996641;28;20042;-79
2021/05/09 07:58:00;;;;;;;6.85;3.00;;;;;;;14.00;56.05;92980.88;4978609;28;20503;-79
2021/05/09 08:00:26;;;;;;;6.68;3.05;;;;;;;13.93;55.66;92983.91;4992991;28;20030;-80
2021/05/09 08:02:52;;;;;;;7.78;3.20;;;;;;;14.75;53.84;92986.66;4975158;28;20034;-80
2021/05/09 08:05:20;;;;;;;6.75;3.25;;;;;;;14.78;54.50;92992.09;4962148;28;20053;-79
2021/05/09 08:07:49;;;;;;;5.95;3.15;;;;;;;14.56;55.77;92990.22;4995654;28;20093;-80
2021/05/09 08:10:15;;;;;;;5.18;2.90;;;;;;;14.97;54.83;92985.88;4995467;28;20034;-80
2021/05/09 08:12:41;;;;;;;6.15;2.47;;;;;;;14.60;55.99;92989.66;4992846;28;20515;-80
2021/05/09 08:15:07;;;;;;;5.70;3.13;;;;;;;14.83;55.99;92982.53;4973682;28;20121;-79
2021/05/09 08:17:33;;;;;;;7.30;3.40;;;;;;;14.88;55.38;92975.28;4970289;28;20456;-80
2021/05/09 08:19:58;;;;;;;6.45;2.85;;;;;;;14.84;55.73;92979.59;4978400;28;20061;-79
2021/05/09 08:22:24;;;;;;;8.95;3.55;;;;;;;14.48;56.01;92987.53;4982349;28;20035;-79
2021/05/09 08:24:49;;;;;;;7.72;3.67;;;;;;;14.24;57.50;92988.53;4976039;28;20054;-80
2021/05/09 08:27:15;;;;;;;6.57;3.90;;;;;;;14.42;55.83;92983.44;4991378;28;20452;-78
2021/05/09 08:29:42;;;;;;;6.15;3.47;;;;;;;14.22;57.03;92980.16;4995776;28;20046;-79
2021/05/09 08:32:08;;;;;;;9.02;3.70;;;;;;;14.09;58.00;92981.72;4976102;28;20075;-79
2021/05/09 08:34:35;;;;;;;5.00;3.10;;;;;;;14.53;57.88;92982.91;4981905;28;20729;-80
2021/05/09 08:37:01;;;;;;;8.98;3.30;;;;;;;15.09;56.85;92991.38;4995482;28;20561;-80
2021/05/09 08:39:26;;;;;;;6.90;3.40;;;;;;;14.71;56.11;92991.75;4977972;28;20073;-80
2021/05/09 08:41:52;;;;;;;7.32;3.35;;;;;;;15.22;55.64;92983.69;4994581;28;20118;-80
2021/05/09 08:44:17;;;;;;;7.82;4.22;;;;;;;14.88;55.46;92985.03;4995162;28;20037;-80
2021/05/09 08:46:45;;;;;;;10.15;3.67;;;;;;;14.76;55.22;92989.00;4975925;28;20105;-80
2021/05/09 08:49:16;;;;;;;7.40;3.90;;;;;;;14.83;57.01;92980.66;4977748;28;20039;-78
2021/05/09 08:51:43;;;;;;;6.68;4.15;;;;;;;14.78;56.31;92981.56;4973656;28;20042;-79
2021/05/09 08:54:08;;;;;;;7.25;4.20;;;;;;;15.03;57.17;92989.16;4995162;28;20399;-77
2021/05/09 08:56:34;;;;;;;7.07;4.38;;;;;;;15.04;56.92;92994.16;4996705;28;20121;-80
2021/05/09 08:59:00;;;;;;;7.18;4.22;;;;;;;15.31;56.21;92989.78;4994002;28;20384;-80
2021/05/09 09:01:31;;;;;;;10.05;4.10;;;;;;;15.27;56.25;92987.00;4992304;28;20515;-80
2021/05/09 09:03:56;;;;;;;6.40;3.67;;;;;;;15.25;54.77;92948.81;4994425;28;20512;-80
2021/05/09 09:06:42;;;;;;;7.68;4.55;;;;;;;15.97;53.49;92984.66;4993535;28;20027;-80
2021/05/09 09:09:21;;;;;;;12.65;4.60;;;;;;;16.27;53.53;92984.88;4970139;28;20395;-80
2021/05/09 09:11:54;;;;;;;7.28;4.35;;;;;;;15.57;53.63;92980.13;4999280;28;20417;-80
2021/05/09 09:14:26;;;;;;;9.13;4.47;;;;;;;15.80;54.11;92988.00;4980760;28;20049;-79
2021/05/09 09:17:17;;;;;;;7.50;4.38;;;;;;;15.04;54.83;92983.59;4958084;28;20042;-80
2021/05/09 09:20:01;;;;;;;8.55;4.40;;;;;;;15.35;52.17;92983.59;4998657;28;20038;-79
2021/05/09 09:22:27;;;;;;;9.38;3.90;;;;;;;15.86;53.65;92984.16;4998342;28;20049;-80
2021/05/09 09:25:20;;;;;;;9.23;4.10;;;;;;;16.17;52.11;92976.16;4999305;28;20528;-78
2021/05/09 09:27:47;;;;;;;;;;;;;;;16.23;52.09;92971.47;4995856;28;20133;-79
2021/05/09 09:30:15;;;;;;;6.10;3.65;;;;;;;16.40;52.57;92968.88;4987401;28;19965;-79
2021/05/09 09:32:41;;;;;;;8.43;3.97;;;;;;;16.51;50.63;92969.34;4998630;28;20034;-78
2021/05/09 09:35:39;;;;;;;7.38;3.60;;;;;;;16.09;50.61;92957.66;4997084;28;20081;-78
2021/05/09 09:38:25;;;;;;;9.43;4.03;;;;;;;16.49;49.35;92953.03;4986338;28;20062;-79
2021/05/09 09:41:10;;;;;;;5.90;3.33;;;;;;;16.66;49.63;92960.16;4997323;28;20552;-80
2021/05/09 09:43:36;;;;;;;7.47;3.92;;;;;;;16.56;51.22;92957.84;4998845;28;20031;-80
2021/05/09 09:46:03;;;;;;;8.45;3.70;;;;;;;16.34;49.06;92956.13;4998057;28;20504;-80
2021/05/09 09:48:40;;;;;;;6.82;3.60;;;;;;;16.36;51.76;92951.31;4979824;28;20038;-80
2021/05/09 09:51:08;;;;;;;5.85;3.38;;;;;;;16.37;49.69;92964.22;4999149;28;20304;-79
2021/05/09 09:53:39;;;;;;;6.18;3.13;;;;;;;16.18;50.11;92953.16;4998601;28;20065;-80
2021/05/09 09:56:05;;;;;;;6.03;3.10;;;;;;;16.18;49.02;92947.88;4998235;28;20069;-80
2021/05/09 09:58:45;;;;;;;7.57;3.38;;;;;;;16.21;49.99;92947.25;4998001;28;20503;-80
2021/05/09 10:01:12;;;;;;;5.72;2.97;;;;;;;16.01;50.99;92941.47;4961825;28;20045;-79
2021/05/09 10:03:38;;;;;;;5.10;2.90;;;;;;;16.02;49.83;92953.59;4979511;28;20042;-79
2021/05/09 10:06:05;;;;;;;5.55;2.97;;;;;;;15.71;51.11;92943.09;4998475;28;20104;-78
2021/05/09 10:08:35;;;;;;;5.95;2.92;;;;;;;16.54;49.94;92946.78;4965665;28;20050;-79
2021/05/09 10:11:02;;;;;;;6.53;3.30;;;;;;;16.59;49.33;92949.28;4993368;28;20030;-79
2021/05/09 10:13:28;;;;;;;7.40;3.28;;;;;;;16.64;49.49;92941.22;4998829;28;20111;-80
2021/05/09 10:15:54;;;;;;;7.03;3.33;;;;;;;16.31;50.69;92925.81;4997634;28;20046;-79
2021/05/09 10:18:21;;;;;;;6.93;3.22;;;;;;;16.29;49.83;92933.28;4996738;28;20082;-79
2021/05/09 10:20:48;;;;;;;5.35;3.10;;;;;;;16.15;51.46;92940.56;4986207;28;20030;-80
2021/05/09 10:23:15;;;;;;;6.88;3.10;;;;;;;16.05;51.73;92936.34;4978133;28;20035;-79
2021/05/09 10:25:46;;;;;;;7.63;3.50;;;;;;;15.92;51.63;92938.06;4978113;28;20449;-79
2021/05/09 10:28:13;;;;;;;6.20;3.13;;;;;;;16.06;51.50;92937.91;4963605;28;20039;-80
2021/05/09 10:30:58;;;;;;;4.93;3.05;;;;;;;16.03;51.44;92928.75;4979361;28;20038;-79
2021/05/09 10:33:39;;;;;;;6.80;3.58;;;;;;;15.90;52.71;92929.66;4980343;28;20038;-79
2021/05/09 10:36:07;;;;;;;8.68;3.15;;;;;;;16.24;51.86;92922.88;4960874;28;20062;-80
2021/05/09 10:39:10;;;;;;;6.07;3.20;;;;;;;15.59;51.95;92930.47;4997311;28;20077;-80
2021/05/09 10:41:59;;;;;;;8.38;3.22;;;;;;;15.47;51.94;92930.28;4940703;29;20103;-79
2021/05/09 10:44:37;;;;;;;8.80;3.45;;;;;;;15.53;51.81;92931.69;4977709;28;20082;-79
2021/05/09 10:47:12;;;;;;;6.32;3.25;;;;;;;15.19;53.16;92938.38;4990432;28;20166;-79
2021/05/09 10:49:57;;;;;;;6.00;3.58;;;;;;;15.48;53.19;92936.34;4993269;28;20038;-78
2021/05/09 10:52:43;;;;;;;8.27;3.63;;;;;;;15.11;52.64;92936.50;4968499;28;20040;-79
2021/05/09 10:55:37;;;;;;;6.15;3.38;;;;;;;15.07;52.76;92935.53;4996844;28;20045;-79
2021/05/09 10:58:04;;;;;;;5.93;2.85;;;;;;;15.37;53.68;92941.09;4981625;28;20121;-80
2021/05/09 11:00:55;;;;;;;5.85;3.20;;;;;;;15.40;53.29;92932.56;4977535;28;20054;-79
2021/05/09 11:03:44;;;;;;;5.53;3.03;;;;;;;15.50;52.46;92932.31;4998023;28;20035;-78
2021/05/09 11:06:25;;;;;;;6.40;3.65;;;;;;;15.36;53.03;92932.41;4978488;28;20034;-79
2021/05/09 11:08:56;;;;;;;6.30;3.15;;;;;;;15.89;52.30;92933.38;4978570;28;20401;-79
2021/05/09 11:11:47;;;;;;;7.10;3.33;;;;;;;16.31;51.66;92928.47;4998051;28;20035;-78
2021/05/09 11:14:13;;;;;;;4.60;2.95;;;;;;;16.52;51.28;92939.16;4993343;28;20042;-78
2021/05/09 11:16:41;;;;;;;7.00;3.30;;;;;;;16.68;50.66;92941.34;4997124;28;20448;-80
2021/05/09 11:19:15;;;;;;;5.88;3.00;;;;;;;16.78;49.10;92936.53;4984240;28;20037;-80
2021/05/09 11:21:49;;;;;;;5.97;3.00;;;;;;;17.08;49.21;92934.00;4964127;28;20066;-79
2021/05/09 11:24:20;;;;;;;7.35;2.95;;;;;;;17.36;49.38;92929.09;4986577;28;20042;-78
2021/05/09 11:26:48;;;;;;;6.20;3.27;;;;;;;17.67;47.31;92934.13;4995430;28;20026;-78
2021/05/09 11:29:19;;;;;;;6.40;3.05;;;;;;;17.86;45.53;92930.31;4992026;28;20610;-78
2021/05/09 11:31:47;;;;;;;6.70;3.20;;;;;;;17.46;48.14;92920.81;4989176;28;20076;-78
2021/05/09 11:36:43;;;;;;;5.38;3.22;;;;;;;17.17;49.32;92926.81;4974299;28;20052;-78
2021/05/09 11:39:13;;;;;;;5.05;3.10;;;;;;;17.10;48.43;92929.19;4969696;28;20118;-78
2021/05/09 11:41:56;;;;;;;5.93;2.92;;;;;;;17.30;49.17;92930.38;4986606;28;20030;-74
2021/05/09 11:44:25;;;;;;;6.97;3.10;;;;;;;17.64;50.28;92920.72;4990306;28;20034;-78